createdAt,value
2023-05-19T00:00:20.278Z,14.62
2023-05-19T00:01:25.619Z,14.31
2023-05-19T00:02:34.347Z,14.39
2023-05-19T00:03:41.204Z,14.43
2023-05-19T00:04:44.942Z,14.27
2023-05-19T00:05:50.090Z,14.24
2023-05-19T00:06:55.458Z,14.10
2023-05-19T00:08:03.887Z,14.14
2023-05-19T00:09:10.130Z,14.21
2023-05-19T00:10:13.845Z,14.31
2023-05-19T00:11:17.610Z,14.14
2023-05-19T00:12:21.092Z,13.98
2023-05-19T00:13:25.494Z,13.98
2023-05-19T00:14:29.798Z,14.00
2023-05-19T00:15:33.476Z,14.02
2023-05-19T00:16:41.128Z,14.12
2023-05-19T00:17:44.545Z,14.10
2023-05-19T00:18:49.049Z,14.01
2023-05-19T00:19:53.248Z,13.92
2023-05-19T00:20:57.089Z,13.93
2023-05-19T00:22:00.508Z,13.73
2023-05-19T00:23:03.872Z,13.79
2023-05-19T00:24:08.138Z,13.94
2023-05-19T00:25:11.816Z,14.09
2023-05-19T00:26:15.180Z,14.01
2023-05-19T00:27:27.900Z,14.06
2023-05-19T00:28:31.284Z,14.07
2023-05-19T00:29:34.588Z,13.98
2023-05-19T00:30:37.857Z,13.93
2023-05-19T00:31:41.330Z,14.00
2023-05-19T00:32:45.873Z,14.09
2023-05-19T00:33:49.251Z,14.04
2023-05-19T00:34:52.732Z,13.97
2023-05-19T00:35:56.941Z,13.96
2023-05-19T00:37:00.473Z,13.99
2023-05-19T00:38:03.788Z,14.03
2023-05-19T00:39:07.283Z,14.02
2023-05-19T00:40:12.185Z,13.85
2023-05-19T00:41:15.481Z,13.81
2023-05-19T00:42:19.256Z,13.86
2023-05-19T00:43:22.652Z,13.96
2023-05-19T00:44:25.987Z,14.10
2023-05-19T00:45:30.057Z,14.18
2023-05-19T00:46:33.374Z,14.12
2023-05-19T00:47:36.947Z,14.10
2023-05-19T00:48:42.780Z,14.10
2023-05-19T00:49:46.138Z,14.11
2023-05-19T00:50:51.290Z,14.15
2023-05-19T00:51:57.021Z,14.03
2023-05-19T00:53:00.558Z,14.07
2023-05-19T00:54:05.338Z,14.12
2023-05-19T00:55:09.784Z,14.10
2023-05-19T00:56:13.939Z,14.05
2023-05-19T00:57:17.233Z,14.18
2023-05-19T00:58:21.759Z,14.22
2023-05-19T00:59:25.177Z,14.31
2023-05-19T01:00:28.632Z,14.10
2023-05-19T01:01:33.015Z,13.87
2023-05-19T01:02:38.967Z,13.93
2023-05-19T01:03:44.716Z,14.05
2023-05-19T01:04:48.901Z,14.16
2023-05-19T01:05:54.404Z,14.03
2023-05-19T01:06:57.983Z,13.82
2023-05-19T01:08:02.689Z,13.67
2023-05-19T01:09:06.157Z,13.83
2023-05-19T01:10:11.464Z,13.89
2023-05-19T01:11:14.746Z,13.92
2023-05-19T01:12:18.603Z,13.85
2023-05-19T01:13:22.722Z,13.82
2023-05-19T01:14:26.245Z,13.78
2023-05-19T01:15:30.380Z,13.92
2023-05-19T01:17:19.971Z,14.10
2023-05-19T01:18:40.300Z,14.27
2023-05-19T01:19:57.057Z,14.22
2023-05-19T01:21:39.371Z,14.05
2023-05-19T01:23:22.220Z,14.30
2023-05-19T01:24:36.800Z,14.34
2023-05-19T01:26:13.747Z,14.31
2023-05-19T01:27:38.634Z,14.37
2023-05-19T01:29:19.987Z,14.37
2023-05-19T01:30:37.977Z,14.30
2023-05-19T01:31:43.869Z,14.16
2023-05-19T01:32:49.525Z,14.02
2023-05-19T01:33:55.567Z,14.09
2023-05-19T01:35:00.723Z,13.93
2023-05-19T01:36:07.414Z,13.85
2023-05-19T01:37:12.689Z,13.88
2023-05-19T01:38:19.012Z,13.69
2023-05-19T01:39:24.025Z,13.75
2023-05-19T01:40:29.371Z,13.76
2023-05-19T01:41:34.937Z,13.84
2023-05-19T01:42:40.778Z,13.86
2023-05-19T01:43:44.240Z,13.86
2023-05-19T01:44:48.423Z,13.86
2023-05-19T01:45:52.783Z,13.85
2023-05-19T01:46:58.340Z,13.92
2023-05-19T01:48:04.543Z,13.92
2023-05-19T01:49:09.711Z,13.83
2023-05-19T01:50:13.710Z,13.84
2023-05-19T01:51:16.971Z,13.74
2023-05-19T01:52:20.297Z,13.70
2023-05-19T01:53:24.740Z,13.72
2023-05-19T01:54:28.070Z,13.61
2023-05-19T01:55:31.661Z,13.67
2023-05-19T01:56:48.250Z,13.72
2023-05-19T01:57:57.031Z,13.76
2023-05-19T01:59:23.769Z,13.79
2023-05-19T02:00:52.253Z,13.83
2023-05-19T02:02:02.471Z,13.79
2023-05-19T02:03:17.355Z,13.84
2023-05-19T02:04:33.127Z,13.67
2023-05-19T02:05:49.952Z,13.75
2023-05-19T02:07:10.667Z,13.78
2023-05-19T02:09:01.889Z,13.93
2023-05-19T02:10:24.832Z,13.95
2023-05-19T02:12:03.188Z,14.00
2023-05-19T02:13:09.964Z,14.03
2023-05-19T02:14:40.030Z,14.08
2023-05-19T02:15:44.493Z,13.92
2023-05-19T02:16:50.084Z,14.01
2023-05-19T02:17:56.761Z,13.80
2023-05-19T02:19:00.339Z,13.84
2023-05-19T02:20:06.321Z,13.71
2023-05-19T02:21:13.844Z,13.60
2023-05-19T02:22:17.238Z,13.73
2023-05-19T02:23:20.482Z,13.73
2023-05-19T02:24:24.111Z,13.66
2023-05-19T02:25:27.995Z,13.80
2023-05-19T02:26:31.782Z,13.79
2023-05-19T02:27:40.075Z,13.60
2023-05-19T02:28:43.283Z,13.66
2023-05-19T02:29:46.799Z,13.76
2023-05-19T02:30:50.102Z,13.72
2023-05-19T02:31:53.469Z,13.55
2023-05-19T02:32:56.886Z,13.61
2023-05-19T02:34:00.187Z,13.51
2023-05-19T02:35:04.832Z,13.53
2023-05-19T02:36:09.713Z,13.56
2023-05-19T02:37:16.691Z,13.57
2023-05-19T02:38:20.258Z,13.56
2023-05-19T02:39:23.737Z,13.52
2023-05-19T02:40:27.138Z,13.53
2023-05-19T02:41:32.264Z,13.68
2023-05-19T02:42:35.537Z,13.63
2023-05-19T02:43:38.791Z,13.64
2023-05-19T02:44:42.032Z,13.72
2023-05-19T02:45:45.385Z,13.71
2023-05-19T02:46:48.698Z,13.65
2023-05-19T02:47:52.285Z,13.55
2023-05-19T02:48:56.344Z,13.48
2023-05-19T02:49:59.886Z,13.64
2023-05-19T02:51:04.256Z,13.66
2023-05-19T02:52:07.980Z,13.66
2023-05-19T02:53:11.560Z,13.72
2023-05-19T02:54:14.827Z,13.54
2023-05-19T02:55:18.407Z,13.55
2023-05-19T02:56:22.465Z,13.62
2023-05-19T02:57:27.410Z,13.70
2023-05-19T02:58:31.529Z,13.67
2023-05-19T02:59:35.085Z,13.72
2023-05-19T03:00:38.457Z,13.64
2023-05-19T03:01:41.793Z,13.47
2023-05-19T03:02:45.191Z,13.50
2023-05-19T03:03:48.571Z,13.64
2023-05-19T03:04:52.385Z,13.53
2023-05-19T03:05:55.699Z,13.47
2023-05-19T03:06:59.171Z,13.52
2023-05-19T03:08:02.423Z,13.50
2023-05-19T03:09:05.758Z,13.67
2023-05-19T03:10:09.629Z,13.60
2023-05-19T03:11:13.111Z,13.55
2023-05-19T03:12:16.461Z,13.48
2023-05-19T03:13:19.727Z,13.56
2023-05-19T03:14:24.585Z,13.67
2023-05-19T03:15:28.998Z,13.69
2023-05-19T03:16:33.247Z,13.69
2023-05-19T03:17:37.081Z,13.64
2023-05-19T03:18:40.983Z,13.59
2023-05-19T03:19:44.282Z,13.64
2023-05-19T03:20:47.552Z,13.70
2023-05-19T03:21:50.863Z,13.81
2023-05-19T03:22:54.140Z,13.87
2023-05-19T03:23:57.539Z,13.94
2023-05-19T03:25:01.268Z,13.95
2023-05-19T03:26:04.980Z,13.96
2023-05-19T03:27:08.467Z,13.77
2023-05-19T03:28:11.724Z,13.78
2023-05-19T03:29:14.972Z,13.88
2023-05-19T03:30:18.392Z,13.92
2023-05-19T03:31:39.872Z,13.92
2023-05-19T03:32:43.867Z,14.02
2023-05-19T03:33:47.931Z,13.99
2023-05-19T03:34:51.504Z,13.88
2023-05-19T03:35:55.156Z,13.82
2023-05-19T03:36:58.549Z,13.81
2023-05-19T03:38:01.967Z,13.81
2023-05-19T03:39:08.986Z,13.72
2023-05-19T03:40:12.913Z,13.68
2023-05-19T03:41:19.144Z,13.63
2023-05-19T03:42:22.475Z,13.71
2023-05-19T03:43:26.473Z,13.85
2023-05-19T03:44:34.133Z,13.95
2023-05-19T03:45:37.474Z,14.12
2023-05-19T03:46:55.602Z,14.23
2023-05-19T03:47:58.995Z,14.06
2023-05-19T03:49:25.039Z,14.15
2023-05-19T03:50:34.682Z,14.03
2023-05-19T03:51:48.668Z,14.00
2023-05-19T03:53:05.616Z,13.84
2023-05-19T03:54:15.378Z,13.77
2023-05-19T03:55:20.898Z,14.04
2023-05-19T03:56:25.725Z,13.90
2023-05-19T03:57:30.647Z,14.02
2023-05-19T03:58:34.217Z,14.08
2023-05-19T03:59:38.342Z,14.09
2023-05-19T04:00:42.348Z,14.02
2023-05-19T04:01:45.564Z,14.08
2023-05-19T04:02:48.949Z,13.96
2023-05-19T04:03:52.281Z,13.94
2023-05-19T04:04:55.562Z,13.83
2023-05-19T04:05:58.991Z,13.86
2023-05-19T04:07:02.262Z,14.01
2023-05-19T04:08:05.625Z,14.10
2023-05-19T04:09:16.110Z,14.12
2023-05-19T04:10:21.298Z,14.07
2023-05-19T04:11:24.571Z,14.14
2023-05-19T04:12:28.170Z,14.02
2023-05-19T04:13:34.787Z,13.99
2023-05-19T04:14:38.008Z,13.93
2023-05-19T04:15:42.160Z,13.84
2023-05-19T04:16:45.452Z,13.93
2023-05-19T04:17:48.974Z,13.89
2023-05-19T04:18:52.262Z,13.80
2023-05-19T04:19:56.103Z,13.93
2023-05-19T04:21:00.187Z,13.80
2023-05-19T04:22:04.110Z,13.84
2023-05-19T04:23:07.428Z,13.90
2023-05-19T04:24:10.657Z,13.87
2023-05-19T04:25:14.165Z,14.00
2023-05-19T04:26:18.647Z,14.11
2023-05-19T04:27:22.752Z,13.88
2023-05-19T04:28:26.327Z,13.85
2023-05-19T04:29:30.300Z,13.78
2023-05-19T04:30:35.118Z,13.72
2023-05-19T04:31:38.808Z,13.76
2023-05-19T04:32:43.068Z,13.73
2023-05-19T04:33:46.878Z,13.78
2023-05-19T04:34:50.122Z,13.73
2023-05-19T04:35:59.434Z,13.92
2023-05-19T04:37:03.343Z,13.88
2023-05-19T04:38:06.964Z,13.98
2023-05-19T04:39:13.017Z,13.96
2023-05-19T04:40:21.802Z,13.96
2023-05-19T04:41:25.163Z,14.03
2023-05-19T04:42:31.433Z,13.87
2023-05-19T04:43:37.234Z,13.89
2023-05-19T04:44:40.890Z,13.99
2023-05-19T04:45:44.277Z,13.94
2023-05-19T04:46:48.459Z,13.95
2023-05-19T04:47:53.257Z,13.91
2023-05-19T04:48:57.848Z,13.94
2023-05-19T04:50:01.517Z,14.03
2023-05-19T04:51:06.005Z,14.06
2023-05-19T04:52:12.914Z,14.13
2023-05-19T04:53:17.212Z,14.00
2023-05-19T04:54:22.089Z,14.01
2023-05-19T04:55:25.361Z,13.92
2023-05-19T04:56:29.625Z,13.87
2023-05-19T04:57:33.446Z,13.94
2023-05-19T04:58:40.130Z,13.85
2023-05-19T04:59:45.391Z,13.88
2023-05-19T05:00:48.625Z,13.82
2023-05-19T05:01:52.792Z,13.82
2023-05-19T05:02:58.317Z,13.76
2023-05-19T05:04:04.371Z,13.71
2023-05-19T05:05:08.641Z,13.76
2023-05-19T05:06:12.491Z,13.96
2023-05-19T05:07:15.772Z,13.90
2023-05-19T05:08:28.542Z,13.88
2023-05-19T05:09:31.912Z,13.71
2023-05-19T05:10:36.699Z,13.63
2023-05-19T05:11:40.934Z,13.75
2023-05-19T05:12:45.430Z,13.80
2023-05-19T05:13:49.341Z,13.91
2023-05-19T05:14:52.922Z,14.00
2023-05-19T05:15:56.908Z,13.85
2023-05-19T05:17:00.602Z,13.89
2023-05-19T05:18:05.691Z,13.95
2023-05-19T05:19:09.462Z,13.88
2023-05-19T05:20:13.563Z,13.75
2023-05-19T05:21:17.756Z,13.78
2023-05-19T05:22:21.791Z,13.74
2023-05-19T05:23:25.334Z,13.71
2023-05-19T05:24:29.004Z,13.78
2023-05-19T05:25:35.825Z,13.87
2023-05-19T05:26:39.501Z,13.85
2023-05-19T05:27:43.072Z,13.91
2023-05-19T05:28:46.630Z,13.94
2023-05-19T05:29:51.621Z,13.93
2023-05-19T05:30:58.131Z,13.96
2023-05-19T05:32:01.506Z,14.00
2023-05-19T05:33:05.490Z,14.00
2023-05-19T05:34:12.922Z,13.94
2023-05-19T05:35:16.803Z,13.99
2023-05-19T05:36:20.259Z,13.85
2023-05-19T05:37:23.587Z,13.76
2023-05-19T05:38:26.820Z,13.74
2023-05-19T05:39:30.928Z,13.84
2023-05-19T05:40:34.297Z,13.77
2023-05-19T05:41:38.896Z,13.73
2023-05-19T05:42:47.080Z,13.70
2023-05-19T05:43:51.214Z,13.66
2023-05-19T05:44:54.928Z,13.63
2023-05-19T05:45:58.946Z,13.73
2023-05-19T05:47:03.772Z,13.72
2023-05-19T05:48:07.787Z,13.75
2023-05-19T05:49:13.223Z,13.64
2023-05-19T05:50:19.939Z,13.71
2023-05-19T05:51:23.741Z,13.83
2023-05-19T05:52:31.897Z,13.89
2023-05-19T05:53:45.828Z,13.98
2023-05-19T05:54:50.898Z,13.92
2023-05-19T05:55:56.297Z,13.79
2023-05-19T05:57:04.778Z,13.85
2023-05-19T05:58:11.719Z,13.87
2023-05-19T05:59:15.368Z,13.87
2023-05-19T06:00:20.703Z,13.87
2023-05-19T06:01:28.824Z,13.82
2023-05-19T06:02:32.255Z,13.74
2023-05-19T06:03:35.612Z,13.76
2023-05-19T06:04:42.501Z,13.77
2023-05-19T06:05:45.822Z,13.87
2023-05-19T06:06:49.181Z,13.85
2023-05-19T06:07:57.744Z,13.90
2023-05-19T06:09:03.133Z,14.02
2023-05-19T06:10:07.809Z,14.04
2023-05-19T06:11:12.469Z,14.11
2023-05-19T06:12:17.373Z,14.01
2023-05-19T06:13:24.746Z,13.98
2023-05-19T06:14:28.565Z,13.92
2023-05-19T06:15:46.791Z,14.09
2023-05-19T06:16:56.507Z,14.11
2023-05-19T06:17:59.862Z,13.99
2023-05-19T06:19:03.442Z,13.98
2023-05-19T06:20:07.579Z,14.00
2023-05-19T06:21:18.331Z,14.10
2023-05-19T06:22:22.000Z,13.96
2023-05-19T06:23:27.461Z,13.98
2023-05-19T06:24:30.894Z,14.03
2023-05-19T06:25:34.581Z,14.00
2023-05-19T06:26:38.059Z,14.01
2023-05-19T06:27:41.586Z,13.96
2023-05-19T06:28:44.853Z,13.97
2023-05-19T06:29:48.149Z,13.95
2023-05-19T06:30:51.452Z,13.89
2023-05-19T06:32:04.633Z,13.96
2023-05-19T06:33:08.097Z,14.00
2023-05-19T06:34:13.122Z,13.98
2023-05-19T06:35:16.387Z,13.93
2023-05-19T06:36:19.641Z,13.87
2023-05-19T06:37:24.502Z,13.72
2023-05-19T06:38:27.752Z,13.72
2023-05-19T06:39:31.581Z,13.84
2023-05-19T06:40:37.722Z,13.89
2023-05-19T06:41:40.938Z,14.01
2023-05-19T06:42:44.747Z,14.07
2023-05-19T06:43:55.951Z,14.10
2023-05-19T06:44:59.303Z,14.04
2023-05-19T06:46:03.774Z,14.12
2023-05-19T06:47:08.729Z,14.10
2023-05-19T06:48:12.157Z,14.18
2023-05-19T06:49:15.675Z,14.29
2023-05-19T06:50:21.410Z,14.34
2023-05-19T06:51:25.781Z,14.21
2023-05-19T06:52:32.315Z,14.32
2023-05-19T06:53:37.533Z,14.26
2023-05-19T06:54:44.575Z,14.13
2023-05-19T06:55:58.781Z,14.27
2023-05-19T06:57:07.183Z,14.35
2023-05-19T06:58:10.587Z,14.28
2023-05-19T06:59:13.887Z,14.22
2023-05-19T07:00:31.864Z,14.34
2023-05-19T07:01:35.262Z,14.37
2023-05-19T07:02:40.416Z,14.32
2023-05-19T07:03:44.718Z,14.24
2023-05-19T07:04:48.947Z,14.25
2023-05-19T07:05:53.282Z,14.16
2023-05-19T07:06:56.593Z,14.24
2023-05-19T07:08:00.569Z,14.30
2023-05-19T07:09:06.194Z,14.23
2023-05-19T07:10:10.349Z,14.38
2023-05-19T07:11:13.793Z,14.34
2023-05-19T07:12:18.062Z,14.28
2023-05-19T07:13:24.384Z,14.32
2023-05-19T07:14:29.140Z,14.38
2023-05-19T07:15:32.670Z,14.20
2023-05-19T07:16:35.946Z,14.25
2023-05-19T07:17:39.685Z,14.29
2023-05-19T07:18:42.986Z,14.37
2023-05-19T07:19:47.699Z,14.45
2023-05-19T07:20:53.485Z,14.42
2023-05-19T07:21:57.824Z,14.29
2023-05-19T07:23:03.409Z,14.32
2023-05-19T07:24:06.967Z,14.35
2023-05-19T07:25:10.871Z,14.32
2023-05-19T07:26:15.272Z,14.30
2023-05-19T07:27:18.635Z,14.31
2023-05-19T07:28:22.302Z,14.47
2023-05-19T07:29:25.628Z,14.43
2023-05-19T07:30:30.560Z,14.47
2023-05-19T07:31:34.182Z,14.44
2023-05-19T07:32:37.449Z,14.45
2023-05-19T07:33:40.731Z,14.35
2023-05-19T07:34:43.947Z,14.42
2023-05-19T07:35:47.361Z,14.62
2023-05-19T07:36:50.809Z,14.68
2023-05-19T07:37:54.182Z,14.70
2023-05-19T07:38:57.444Z,14.81
2023-05-19T07:40:00.988Z,14.85
2023-05-19T07:41:04.897Z,14.78
2023-05-19T07:42:08.274Z,14.83
2023-05-19T07:43:12.262Z,14.89
2023-05-19T07:44:15.607Z,14.85
2023-05-19T07:45:18.995Z,14.81
2023-05-19T07:46:23.023Z,14.84
2023-05-19T07:47:26.471Z,14.91
2023-05-19T07:48:30.354Z,14.97
2023-05-19T07:49:33.579Z,15.01
2023-05-19T07:50:37.814Z,14.99
2023-05-19T07:51:42.559Z,14.98
2023-05-19T07:52:45.769Z,14.90
2023-05-19T07:53:49.016Z,14.90
2023-05-19T07:54:52.281Z,14.97
2023-05-19T07:55:57.064Z,14.87
2023-05-19T07:57:01.777Z,14.80
2023-05-19T07:58:04.970Z,14.87
2023-05-19T07:59:08.855Z,14.75
2023-05-19T08:00:13.290Z,14.61
2023-05-19T08:01:17.465Z,14.65
2023-05-19T08:02:20.805Z,14.71
2023-05-19T08:03:24.597Z,14.64
2023-05-19T08:04:28.551Z,14.68
2023-05-19T08:05:31.950Z,14.67
2023-05-19T08:06:35.958Z,14.78
2023-05-19T08:07:39.219Z,14.74
2023-05-19T08:08:43.530Z,14.74
2023-05-19T08:09:46.728Z,14.70
2023-05-19T08:10:50.031Z,14.66
2023-05-19T08:11:53.237Z,14.65
2023-05-19T08:12:56.863Z,14.62
2023-05-19T08:14:00.150Z,14.60
2023-05-19T08:15:03.378Z,14.58
2023-05-19T08:16:07.197Z,14.63
2023-05-19T08:17:10.829Z,14.75
2023-05-19T08:18:14.125Z,14.82
2023-05-19T08:19:17.628Z,14.80
2023-05-19T08:20:21.305Z,14.78
2023-05-19T08:21:24.614Z,14.73
2023-05-19T08:22:27.984Z,14.84
2023-05-19T08:23:31.236Z,14.85
2023-05-19T08:24:34.583Z,14.85
2023-05-19T08:25:37.865Z,14.89
2023-05-19T08:26:41.382Z,15.04
2023-05-19T08:27:44.708Z,15.00
2023-05-19T08:28:48.017Z,14.98
2023-05-19T08:29:51.256Z,14.96
2023-05-19T08:30:54.714Z,14.97
2023-05-19T08:31:59.212Z,15.03
2023-05-19T08:33:03.068Z,15.11
2023-05-19T08:34:06.327Z,15.08
2023-05-19T08:35:10.156Z,15.10
2023-05-19T08:36:13.634Z,15.08
2023-05-19T08:37:19.803Z,15.06
2023-05-19T08:38:23.180Z,15.04
2023-05-19T08:39:28.009Z,14.94
2023-05-19T08:40:32.526Z,15.01
2023-05-19T08:41:36.044Z,15.08
2023-05-19T08:42:39.415Z,15.08
2023-05-19T08:43:42.954Z,14.96
2023-05-19T08:44:46.368Z,15.11
2023-05-19T08:45:49.757Z,15.08
2023-05-19T08:46:57.014Z,15.00
2023-05-19T08:48:00.554Z,14.95
2023-05-19T08:49:15.425Z,14.94
2023-05-19T08:50:25.671Z,15.02
2023-05-19T08:51:39.897Z,14.99
2023-05-19T08:52:56.437Z,14.98
2023-05-19T08:54:10.505Z,14.92
2023-05-19T08:55:28.427Z,14.97
2023-05-19T08:56:32.888Z,14.94
2023-05-19T08:57:37.839Z,14.89
2023-05-19T08:58:43.294Z,14.91
2023-05-19T08:59:47.392Z,14.96
2023-05-19T09:00:52.932Z,14.94
2023-05-19T09:01:57.256Z,15.00
2023-05-19T09:03:17.457Z,15.05
2023-05-19T09:04:21.784Z,15.02
2023-05-19T09:05:25.592Z,15.02
2023-05-19T09:06:29.333Z,15.05
2023-05-19T09:07:35.536Z,15.01
2023-05-19T09:08:39.869Z,15.08
2023-05-19T09:09:44.665Z,15.09
2023-05-19T09:10:48.141Z,15.03
2023-05-19T09:11:51.590Z,15.06
2023-05-19T09:12:54.915Z,15.08
2023-05-19T09:13:58.458Z,15.09
2023-05-19T09:15:03.446Z,15.22
2023-05-19T09:16:07.400Z,15.21
2023-05-19T09:17:11.277Z,15.16
2023-05-19T09:18:18.591Z,15.17
2023-05-19T09:19:22.212Z,15.10
2023-05-19T09:20:25.538Z,15.11
2023-05-19T09:21:32.972Z,15.15
2023-05-19T09:22:42.554Z,15.20
2023-05-19T09:23:48.476Z,15.15
2023-05-19T09:24:52.316Z,15.18
2023-05-19T09:25:56.926Z,15.15
2023-05-19T09:27:00.520Z,15.16
2023-05-19T09:28:03.983Z,15.20
2023-05-19T09:29:19.973Z,15.22
2023-05-19T09:30:24.654Z,15.20
2023-05-19T09:31:34.344Z,15.16
2023-05-19T09:32:37.584Z,15.19
2023-05-19T09:33:46.406Z,15.15
2023-05-19T09:34:51.815Z,15.10
2023-05-19T09:35:58.717Z,15.08
2023-05-19T09:37:02.126Z,15.08
2023-05-19T09:38:05.392Z,15.08
2023-05-19T09:39:18.902Z,15.06
2023-05-19T09:40:22.317Z,15.14
2023-05-19T09:41:27.082Z,15.04
2023-05-19T09:42:30.972Z,15.12
2023-05-19T09:43:35.812Z,15.15
2023-05-19T09:44:39.212Z,15.19
2023-05-19T09:45:42.600Z,15.17
2023-05-19T09:46:53.456Z,15.12
2023-05-19T09:47:56.632Z,15.17
2023-05-19T09:49:00.247Z,15.17
2023-05-19T09:50:05.292Z,15.18
2023-05-19T09:51:11.417Z,15.17
2023-05-19T09:52:19.671Z,15.18
2023-05-19T09:53:23.497Z,15.12
2023-05-19T09:54:30.442Z,15.16
2023-05-19T09:55:34.496Z,15.23
2023-05-19T09:56:40.201Z,15.22
2023-05-19T09:57:46.043Z,15.15
2023-05-19T09:58:50.318Z,15.23
2023-05-19T09:59:57.663Z,15.21
2023-05-19T10:01:03.078Z,15.23
2023-05-19T10:02:10.773Z,15.16
2023-05-19T10:03:14.869Z,15.19
2023-05-19T10:04:19.291Z,15.21
2023-05-19T10:05:22.947Z,15.15
2023-05-19T10:06:27.556Z,15.20
2023-05-19T10:07:31.703Z,15.19
2023-05-19T10:08:37.712Z,15.22
2023-05-19T10:09:43.566Z,15.25
2023-05-19T10:10:48.441Z,15.18
2023-05-19T10:11:56.819Z,15.22
2023-05-19T10:13:01.647Z,15.22
2023-05-19T10:14:05.943Z,15.25
2023-05-19T10:15:14.491Z,15.29
2023-05-19T10:16:19.420Z,15.28
2023-05-19T10:17:24.494Z,15.26
2023-05-19T10:18:30.136Z,15.28
2023-05-19T10:19:33.909Z,15.34
2023-05-19T10:20:38.049Z,15.43
2023-05-19T10:21:41.938Z,15.37
2023-05-19T10:22:47.378Z,15.38
2023-05-19T10:23:51.081Z,15.45
2023-05-19T10:24:56.658Z,15.41
2023-05-19T10:26:05.899Z,15.43
2023-05-19T10:27:14.965Z,15.51
2023-05-19T10:28:26.015Z,15.46
2023-05-19T10:29:49.391Z,15.53
2023-05-19T10:30:57.977Z,15.57
2023-05-19T10:32:14.083Z,15.60
2023-05-19T10:33:20.710Z,15.53
2023-05-19T10:34:43.461Z,15.61
2023-05-19T10:36:11.769Z,15.61
2023-05-19T10:37:36.166Z,15.51
2023-05-19T10:39:01.447Z,15.57
2023-05-19T10:40:14.483Z,15.63
2023-05-19T10:41:59.518Z,15.65
2023-05-19T10:43:40.170Z,15.62
2023-05-19T10:45:00.717Z,15.65
2023-05-19T10:46:07.094Z,15.71
2023-05-19T10:47:12.839Z,15.71
2023-05-19T10:48:17.703Z,15.66
2023-05-19T10:49:24.784Z,15.68
2023-05-19T10:50:28.211Z,15.74
2023-05-19T10:51:35.374Z,15.77
2023-05-19T10:52:39.856Z,15.73
2023-05-19T10:53:47.374Z,15.73
2023-05-19T10:54:50.799Z,15.71
2023-05-19T10:55:57.397Z,15.76
2023-05-19T10:57:03.457Z,15.72
2023-05-19T10:58:07.027Z,15.80
2023-05-19T10:59:34.315Z,15.79
2023-05-19T11:00:42.214Z,15.79
2023-05-19T11:01:46.104Z,15.82
2023-05-19T11:02:56.829Z,15.80
2023-05-19T11:04:08.532Z,15.84
2023-05-19T11:05:18.943Z,15.81
2023-05-19T11:06:29.460Z,15.84
2023-05-19T11:07:32.935Z,15.86
2023-05-19T11:08:37.165Z,15.85
2023-05-19T11:09:44.262Z,15.88
2023-05-19T11:10:47.644Z,15.83
2023-05-19T11:11:53.172Z,15.89
2023-05-19T11:12:58.569Z,15.93
2023-05-19T11:14:02.062Z,15.95
2023-05-19T11:15:05.808Z,15.86
2023-05-19T11:16:10.022Z,15.88
2023-05-19T11:17:17.120Z,15.84
2023-05-19T11:18:22.014Z,15.77
2023-05-19T11:19:30.445Z,15.77
2023-05-19T11:20:36.867Z,15.86
2023-05-19T11:21:43.828Z,15.85
2023-05-19T11:23:08.519Z,15.84
2023-05-19T11:24:31.872Z,15.82
2023-05-19T11:25:47.619Z,15.83
2023-05-19T11:26:51.119Z,15.73
2023-05-19T11:27:56.114Z,15.87
2023-05-19T11:28:59.596Z,15.88
2023-05-19T11:30:15.310Z,15.84
2023-05-19T11:31:20.727Z,15.94
2023-05-19T11:32:28.110Z,15.95
2023-05-19T11:33:33.584Z,15.96
2023-05-19T11:34:39.151Z,16.01
2023-05-19T11:35:44.583Z,15.98
2023-05-19T11:36:48.950Z,15.97
2023-05-19T11:37:55.708Z,16.07
2023-05-19T11:39:02.483Z,16.09
2023-05-19T11:40:10.275Z,16.10
2023-05-19T11:41:18.841Z,16.11
2023-05-19T11:42:23.657Z,16.20
2023-05-19T11:43:27.476Z,16.13
2023-05-19T11:44:30.697Z,16.17
2023-05-19T11:45:35.457Z,16.21
2023-05-19T11:46:39.904Z,16.21
2023-05-19T11:48:00.237Z,16.24
2023-05-19T11:49:06.907Z,16.18
2023-05-19T11:50:13.474Z,16.23
2023-05-19T11:51:17.182Z,16.17
2023-05-19T11:52:23.305Z,16.22
2023-05-19T11:53:34.031Z,16.27
2023-05-19T11:54:40.037Z,16.30
2023-05-19T11:55:48.379Z,16.32
2023-05-19T11:56:52.110Z,16.25
2023-05-19T11:58:04.475Z,16.29
2023-05-19T11:59:09.923Z,16.33
2023-05-19T12:00:15.407Z,16.31
2023-05-19T12:01:18.774Z,16.35
2023-05-19T12:02:25.572Z,16.32
2023-05-19T12:03:30.345Z,16.39
2023-05-19T12:04:33.835Z,16.46
2023-05-19T12:05:44.746Z,16.48
2023-05-19T12:06:50.475Z,16.48
2023-05-19T12:07:54.509Z,16.42
2023-05-19T12:08:58.327Z,16.52
2023-05-19T12:10:01.954Z,16.54
2023-05-19T12:11:06.680Z,16.48
2023-05-19T12:12:10.374Z,16.60
2023-05-19T12:13:13.800Z,16.59
2023-05-19T12:14:18.080Z,16.64
2023-05-19T12:15:26.036Z,16.67
2023-05-19T12:16:36.194Z,16.60
2023-05-19T12:17:40.287Z,16.59
2023-05-19T12:18:43.718Z,16.60
2023-05-19T12:19:49.783Z,16.62
2023-05-19T12:20:53.264Z,16.63
2023-05-19T12:21:56.681Z,16.70
2023-05-19T12:23:01.744Z,16.68
2023-05-19T12:24:07.342Z,16.70
2023-05-19T12:25:11.402Z,16.75
2023-05-19T12:26:14.999Z,16.84
2023-05-19T12:27:27.162Z,16.79
2023-05-19T12:28:33.372Z,16.83
2023-05-19T12:29:36.705Z,16.83
2023-05-19T12:30:40.208Z,16.88
2023-05-19T12:31:47.388Z,16.90
2023-05-19T12:32:52.693Z,16.96
2023-05-19T12:33:56.822Z,17.01
2023-05-19T12:35:01.086Z,17.02
2023-05-19T12:36:05.678Z,17.13
2023-05-19T12:37:09.272Z,17.19
2023-05-19T12:38:13.031Z,17.10
2023-05-19T12:39:16.445Z,17.14
2023-05-19T12:40:19.698Z,17.20
2023-05-19T12:41:24.802Z,17.19
2023-05-19T12:42:32.106Z,17.17
2023-05-19T12:43:35.371Z,17.22
2023-05-19T12:44:51.157Z,17.20
2023-05-19T12:45:54.849Z,17.23
2023-05-19T12:47:00.296Z,17.36
2023-05-19T12:48:12.350Z,17.37
2023-05-19T12:49:15.803Z,17.32
2023-05-19T12:50:19.713Z,17.33
2023-05-19T12:51:22.962Z,17.38
2023-05-19T12:52:28.527Z,17.35
2023-05-19T12:53:34.494Z,17.29
2023-05-19T12:54:38.135Z,17.26
2023-05-19T12:55:45.903Z,17.24
2023-05-19T12:56:53.428Z,17.29
2023-05-19T12:57:59.695Z,17.31
2023-05-19T12:59:02.971Z,17.29
2023-05-19T13:00:26.293Z,17.27
2023-05-19T13:01:31.588Z,17.28
2023-05-19T13:02:37.025Z,17.24
2023-05-19T13:03:44.189Z,17.22
2023-05-19T13:04:47.811Z,17.24
2023-05-19T13:05:52.611Z,17.23
2023-05-19T13:06:57.028Z,17.27
2023-05-19T13:08:07.508Z,17.29
2023-05-19T13:09:11.541Z,17.32
2023-05-19T13:10:14.779Z,17.30
2023-05-19T13:11:18.276Z,17.40
2023-05-19T13:12:21.717Z,17.32
2023-05-19T13:13:25.009Z,17.43
2023-05-19T13:14:28.562Z,17.51
2023-05-19T13:15:38.634Z,17.50
2023-05-19T13:16:41.868Z,17.55
2023-05-19T13:17:47.095Z,17.50
2023-05-19T13:18:50.501Z,17.60
2023-05-19T13:19:53.931Z,17.66
2023-05-19T13:20:57.300Z,17.63
2023-05-19T13:22:00.646Z,17.63
2023-05-19T13:23:05.517Z,17.61
2023-05-19T13:24:08.829Z,17.70
2023-05-19T13:25:13.373Z,17.63
2023-05-19T13:26:16.900Z,17.66
2023-05-19T13:27:20.352Z,17.69
2023-05-19T13:28:27.269Z,17.78
2023-05-19T13:29:30.615Z,17.78
2023-05-19T13:30:36.145Z,17.82
2023-05-19T13:31:39.902Z,17.71
2023-05-19T13:32:43.563Z,17.68
2023-05-19T13:33:46.846Z,17.71
2023-05-19T13:34:50.055Z,17.70
2023-05-19T13:35:53.907Z,17.69
2023-05-19T13:36:57.507Z,17.65
2023-05-19T13:38:00.776Z,17.63
2023-05-19T13:39:04.316Z,17.61
2023-05-19T13:40:08.280Z,17.60
2023-05-19T13:41:12.640Z,17.66
2023-05-19T13:42:18.349Z,17.59
2023-05-19T13:43:22.346Z,17.61
2023-05-19T13:44:26.538Z,17.58
2023-05-19T13:45:29.859Z,17.61
2023-05-19T13:46:44.840Z,17.67
2023-05-19T13:47:49.115Z,17.72
2023-05-19T13:48:52.503Z,17.75
2023-05-19T13:49:55.771Z,17.75
2023-05-19T13:50:59.057Z,17.74
2023-05-19T13:52:02.467Z,17.90
2023-05-19T13:53:05.962Z,17.88
2023-05-19T13:54:09.572Z,17.99
2023-05-19T13:55:12.901Z,18.02
2023-05-19T13:56:16.210Z,17.98
2023-05-19T13:57:19.454Z,18.00
2023-05-19T13:58:23.164Z,18.05
2023-05-19T13:59:29.613Z,18.04
2023-05-19T14:00:33.441Z,17.97
2023-05-19T14:01:37.669Z,18.06
2023-05-19T14:02:41.546Z,18.01
2023-05-19T14:03:44.907Z,18.00
2023-05-19T14:04:48.213Z,18.00
2023-05-19T14:05:51.600Z,17.92
2023-05-19T14:06:54.919Z,17.97
2023-05-19T14:07:58.695Z,18.00
2023-05-19T14:09:02.031Z,18.04
2023-05-19T14:10:07.439Z,18.07